sensor_id;sensor_type;location;lat;lon;timestamp;temperature;humidity
19496;DHT22;9888;48.606;9.630;2022-12-10T00:02:07;-0.20;99.90
19496;DHT22;9888;48.606;9.630;2022-12-10T00:04:34;-0.20;99.90
19496;DHT22;9888;48.606;9.630;2022-12-10T00:07:01;-0.30;99.90
19496;DHT22;9888;48.606;9.630;2022-12-10T00:09:28;-0.30;99.90
19496;DHT22;9888;48.606;9.630;2022-12-10T00:11:55;-0.30;99.90
19496;DHT22;9888;48.606;9.630;2022-12-10T00:14:22;-0.30;99.90
19496;DHT22;9888;48.606;9.630;2022-12-10T00:16:49;-0.30;99.90
19496;DHT22;9888;48.606;9.630;2022-12-10T00:19:16;-0.30;99.90
19496;DHT22;9888;48.606;9.630;2022-12-10T00:21:44;-0.30;99.90
19496;DHT22;9888;48.606;9.630;2022-12-10T00:24:11;-0.30;99.90
19496;DHT22;9888;48.606;9.630;2022-12-10T00:26:39;-0.30;99.90
19496;DHT22;9888;48.606;9.630;2022-12-10T00:29:09;-0.30;99.90
19496;DHT22;9888;48.606;9.630;2022-12-10T00:31:38;-0.30;99.90
19496;DHT22;9888;48.606;9.630;2022-12-10T00:34:07;-0.30;99.90
19496;DHT22;9888;48.606;9.630;2022-12-10T00:36:41;-0.30;99.90
19496;DHT22;9888;48.606;9.630;2022-12-10T00:39:37;-0.30;99.90
19496;DHT22;9888;48.606;9.630;2022-12-10T00:42:04;-0.30;99.90
19496;DHT22;9888;48.606;9.630;2022-12-10T00:44:32;-0.20;99.90
19496;DHT22;9888;48.606;9.630;2022-12-10T00:46:59;-0.30;99.90
19496;DHT22;9888;48.606;9.630;2022-12-10T00:52:55;-0.20;99.90
19496;DHT22;9888;48.606;9.630;2022-12-10T00:55:40;-0.20;99.90
19496;DHT22;9888;48.606;9.630;2022-12-10T01:01:37;-0.20;99.90
19496;DHT22;9888;48.606;9.630;2022-12-10T01:04:13;-0.30;99.90
19496;DHT22;9888;48.606;9.630;2022-12-10T01:06:44;-0.30;99.90
19496;DHT22;9888;48.606;9.630;2022-12-10T01:09:14;-0.30;99.90
19496;DHT22;9888;48.606;9.630;2022-12-10T01:11:42;-0.20;99.90
19496;DHT22;9888;48.606;9.630;2022-12-10T01:14:12;-0.20;99.90
19496;DHT22;9888;48.606;9.630;2022-12-10T01:16:40;-0.10;99.90
19496;DHT22;9888;48.606;9.630;2022-12-10T01:19:08;-0.20;99.90
19496;DHT22;9888;48.606;9.630;2022-12-10T01:21:35;-0.20;99.90
19496;DHT22;9888;48.606;9.630;2022-12-10T01:24:02;-0.20;99.90
19496;DHT22;9888;48.606;9.630;2022-12-10T01:26:32;-0.20;99.90
19496;DHT22;9888;48.606;9.630;2022-12-10T01:29:00;-0.20;99.90
19496;DHT22;9888;48.606;9.630;2022-12-10T01:31:32;-0.30;99.90
19496;DHT22;9888;48.606;9.630;2022-12-10T01:34:00;-0.30;99.90
19496;DHT22;9888;48.606;9.630;2022-12-10T01:36:34;-0.30;99.90
19496;DHT22;9888;48.606;9.630;2022-12-10T01:39:04;-0.30;99.90
19496;DHT22;9888;48.606;9.630;2022-12-10T01:41:48;-0.30;99.90
19496;DHT22;9888;48.606;9.630;2022-12-10T01:47:01;-0.30;99.90
19496;DHT22;9888;48.606;9.630;2022-12-10T01:49:38;-0.30;99.90
19496;DHT22;9888;48.606;9.630;2022-12-10T01:55:47;-0.30;99.90
19496;DHT22;9888;48.606;9.630;2022-12-10T02:01:57;-0.30;99.90
19496;DHT22;9888;48.606;9.630;2022-12-10T02:09:46;-0.20;99.90
19496;DHT22;9888;48.606;9.630;2022-12-10T02:12:28;-0.20;99.90
19496;DHT22;9888;48.606;9.630;2022-12-10T02:15:27;-0.20;99.90
19496;DHT22;9888;48.606;9.630;2022-12-10T02:18:03;-0.20;99.90
19496;DHT22;9888;48.606;9.630;2022-12-10T02:20:43;-0.20;99.90
19496;DHT22;9888;48.606;9.630;2022-12-10T02:23:43;-0.20;99.90
19496;DHT22;9888;48.606;9.630;2022-12-10T02:26:17;-0.30;99.90
19496;DHT22;9888;48.606;9.630;2022-12-10T02:31:34;-0.40;99.90
19496;DHT22;9888;48.606;9.630;2022-12-10T02:34:03;-0.40;99.90
19496;DHT22;9888;48.606;9.630;2022-12-10T02:36:33;-0.40;99.90
19496;DHT22;9888;48.606;9.630;2022-12-10T02:39:03;-0.30;99.90
19496;DHT22;9888;48.606;9.630;2022-12-10T02:41:41;-0.30;99.90
19496;DHT22;9888;48.606;9.630;2022-12-10T02:44:11;-0.30;99.90
19496;DHT22;9888;48.606;9.630;2022-12-10T02:46:41;-0.30;99.90
19496;DHT22;9888;48.606;9.630;2022-12-10T02:49:11;-0.30;99.90
19496;DHT22;9888;48.606;9.630;2022-12-10T02:51:40;-0.30;99.90
19496;DHT22;9888;48.606;9.630;2022-12-10T02:54:34;-0.40;99.90
19496;DHT22;9888;48.606;9.630;2022-12-10T02:57:28;-0.40;99.90
19496;DHT22;9888;48.606;9.630;2022-12-10T03:03:17;-0.50;99.90
19496;DHT22;9888;48.606;9.630;2022-12-10T03:05:51;-0.50;99.90
19496;DHT22;9888;48.606;9.630;2022-12-10T03:08:46;-0.40;99.90
19496;DHT22;9888;48.606;9.630;2022-12-10T03:11:21;-0.30;99.90
19496;DHT22;9888;48.606;9.630;2022-12-10T03:16:56;-0.20;99.90
19496;DHT22;9888;48.606;9.630;2022-12-10T03:19:45;-0.30;99.90
19496;DHT22;9888;48.606;9.630;2022-12-10T03:22:14;-0.30;99.90
19496;DHT22;9888;48.606;9.630;2022-12-10T03:24:43;-0.40;99.90
19496;DHT22;9888;48.606;9.630;2022-12-10T03:27:12;-0.50;99.90
19496;DHT22;9888;48.606;9.630;2022-12-10T03:29:49;-0.50;99.90
19496;DHT22;9888;48.606;9.630;2022-12-10T03:32:17;-0.40;99.90
19496;DHT22;9888;48.606;9.630;2022-12-10T03:34:46;-0.40;99.90
19496;DHT22;9888;48.606;9.630;2022-12-10T03:37:14;-0.40;99.90
19496;DHT22;9888;48.606;9.630;2022-12-10T03:39:41;-0.50;99.90
19496;DHT22;9888;48.606;9.630;2022-12-10T03:42:13;-0.50;99.90
19496;DHT22;9888;48.606;9.630;2022-12-10T03:44:40;-0.50;99.90
19496;DHT22;9888;48.606;9.630;2022-12-10T03:47:10;-0.50;99.90
19496;DHT22;9888;48.606;9.630;2022-12-10T03:49:38;-0.50;99.90
19496;DHT22;9888;48.606;9.630;2022-12-10T03:52:06;-0.60;99.90
19496;DHT22;9888;48.606;9.630;2022-12-10T03:54:35;-0.60;99.90
19496;DHT22;9888;48.606;9.630;2022-12-10T03:57:02;-0.60;99.90
19496;DHT22;9888;48.606;9.630;2022-12-10T03:59:29;-0.60;99.90
19496;DHT22;9888;48.606;9.630;2022-12-10T04:01:58;-0.50;99.90
19496;DHT22;9888;48.606;9.630;2022-12-10T04:04:25;-0.50;99.90
19496;DHT22;9888;48.606;9.630;2022-12-10T04:06:52;-0.50;99.90
19496;DHT22;9888;48.606;9.630;2022-12-10T04:09:20;-0.60;99.90
19496;DHT22;9888;48.606;9.630;2022-12-10T04:11:48;-0.60;99.90
19496;DHT22;9888;48.606;9.630;2022-12-10T04:14:15;-0.60;99.90
19496;DHT22;9888;48.606;9.630;2022-12-10T04:17:00;-0.60;99.90
19496;DHT22;9888;48.606;9.630;2022-12-10T04:19:27;-0.60;99.90
19496;DHT22;9888;48.606;9.630;2022-12-10T04:21:54;-0.60;99.90
19496;DHT22;9888;48.606;9.630;2022-12-10T04:24:40;-0.60;99.90
19496;DHT22;9888;48.606;9.630;2022-12-10T04:27:33;-0.70;99.90
19496;DHT22;9888;48.606;9.630;2022-12-10T04:30:04;-0.70;99.90
19496;DHT22;9888;48.606;9.630;2022-12-10T04:32:32;-0.70;99.90
19496;DHT22;9888;48.606;9.630;2022-12-10T04:34:59;-0.70;99.90
19496;DHT22;9888;48.606;9.630;2022-12-10T04:37:27;-0.70;99.90
19496;DHT22;9888;48.606;9.630;2022-12-10T04:39:55;-0.70;99.90
19496;DHT22;9888;48.606;9.630;2022-12-10T04:42:23;-0.70;99.90
19496;DHT22;9888;48.606;9.630;2022-12-10T04:44:50;-0.70;99.90
19496;DHT22;9888;48.606;9.630;2022-12-10T04:47:17;-0.70;99.90
19496;DHT22;9888;48.606;9.630;2022-12-10T04:49:44;-0.70;99.90
19496;DHT22;9888;48.606;9.630;2022-12-10T04:52:14;-0.60;99.90
19496;DHT22;9888;48.606;9.630;2022-12-10T04:54:42;-0.70;99.90
19496;DHT22;9888;48.606;9.630;2022-12-10T04:57:09;-0.70;99.90
19496;DHT22;9888;48.606;9.630;2022-12-10T04:59:36;-0.70;99.90
19496;DHT22;9888;48.606;9.630;2022-12-10T05:02:05;-0.80;99.90
19496;DHT22;9888;48.606;9.630;2022-12-10T05:04:33;-0.70;99.90
19496;DHT22;9888;48.606;9.630;2022-12-10T05:07:00;-0.70;99.90
19496;DHT22;9888;48.606;9.630;2022-12-10T05:09:28;-0.70;99.90
19496;DHT22;9888;48.606;9.630;2022-12-10T05:11:55;-0.70;99.90
19496;DHT22;9888;48.606;9.630;2022-12-10T05:14:23;-0.70;99.90
19496;DHT22;9888;48.606;9.630;2022-12-10T05:16:51;-0.70;99.90
19496;DHT22;9888;48.606;9.630;2022-12-10T05:19:18;-0.70;99.90
19496;DHT22;9888;48.606;9.630;2022-12-10T05:21:50;-0.70;99.90
19496;DHT22;9888;48.606;9.630;2022-12-10T05:24:35;-0.60;99.90
19496;DHT22;9888;48.606;9.630;2022-12-10T05:27:04;-0.70;99.90
19496;DHT22;9888;48.606;9.630;2022-12-10T05:29:32;-0.70;99.90
19496;DHT22;9888;48.606;9.630;2022-12-10T05:32:00;-0.70;99.90
19496;DHT22;9888;48.606;9.630;2022-12-10T05:34:28;-0.70;99.90
19496;DHT22;9888;48.606;9.630;2022-12-10T05:36:55;-0.70;99.90
19496;DHT22;9888;48.606;9.630;2022-12-10T05:39:22;-0.70;99.90
19496;DHT22;9888;48.606;9.630;2022-12-10T05:41:49;-0.80;99.90
19496;DHT22;9888;48.606;9.630;2022-12-10T05:44:16;-0.80;99.90
19496;DHT22;9888;48.606;9.630;2022-12-10T05:46:43;-0.80;99.90
19496;DHT22;9888;48.606;9.630;2022-12-10T05:49:10;-0.80;99.90
19496;DHT22;9888;48.606;9.630;2022-12-10T05:51:38;-0.80;99.90
19496;DHT22;9888;48.606;9.630;2022-12-10T05:54:06;-0.80;99.90
19496;DHT22;9888;48.606;9.630;2022-12-10T05:56:36;-0.80;99.90
19496;DHT22;9888;48.606;9.630;2022-12-10T05:59:04;-0.90;99.90
19496;DHT22;9888;48.606;9.630;2022-12-10T06:01:34;-0.80;99.90
19496;DHT22;9888;48.606;9.630;2022-12-10T06:04:03;-0.80;99.90
19496;DHT22;9888;48.606;9.630;2022-12-10T06:06:39;-0.90;99.90
19496;DHT22;9888;48.606;9.630;2022-12-10T06:09:11;-0.90;99.90
19496;DHT22;9888;48.606;9.630;2022-12-10T06:11:39;-0.90;99.90
19496;DHT22;9888;48.606;9.630;2022-12-10T06:14:05;-0.90;99.90
19496;DHT22;9888;48.606;9.630;2022-12-10T06:16:32;-0.90;99.90
19496;DHT22;9888;48.606;9.630;2022-12-10T06:18:59;-0.90;99.90
19496;DHT22;9888;48.606;9.630;2022-12-10T06:21:26;-0.90;99.90
19496;DHT22;9888;48.606;9.630;2022-12-10T06:23:54;-0.90;99.90
19496;DHT22;9888;48.606;9.630;2022-12-10T06:26:24;-0.90;99.90
19496;DHT22;9888;48.606;9.630;2022-12-10T06:28:52;-1.00;99.90
19496;DHT22;9888;48.606;9.630;2022-12-10T06:31:19;-1.00;99.90
19496;DHT22;9888;48.606;9.630;2022-12-10T06:33:46;-0.90;99.90
19496;DHT22;9888;48.606;9.630;2022-12-10T06:36:15;-0.90;99.90
19496;DHT22;9888;48.606;9.630;2022-12-10T06:38:42;-0.90;99.90
19496;DHT22;9888;48.606;9.630;2022-12-10T06:41:11;-0.90;99.90
19496;DHT22;9888;48.606;9.630;2022-12-10T06:43:41;-0.90;99.90
19496;DHT22;9888;48.606;9.630;2022-12-10T06:46:17;-0.90;99.90
19496;DHT22;9888;48.606;9.630;2022-12-10T06:48:44;-0.90;99.90
19496;DHT22;9888;48.606;9.630;2022-12-10T06:51:13;-0.90;99.90
19496;DHT22;9888;48.606;9.630;2022-12-10T06:53:41;-0.90;99.90
19496;DHT22;9888;48.606;9.630;2022-12-10T06:56:13;-0.90;99.90
19496;DHT22;9888;48.606;9.630;2022-12-10T06:58:41;-0.90;99.90
19496;DHT22;9888;48.606;9.630;2022-12-10T07:01:16;-0.90;99.90
19496;DHT22;9888;48.606;9.630;2022-12-10T07:03:44;-0.90;99.90
19496;DHT22;9888;48.606;9.630;2022-12-10T07:06:14;-0.90;99.90
19496;DHT22;9888;48.606;9.630;2022-12-10T07:08:41;-0.90;99.90
19496;DHT22;9888;48.606;9.630;2022-12-10T07:11:10;-0.90;99.90
19496;DHT22;9888;48.606;9.630;2022-12-10T07:13:37;-0.90;99.90
19496;DHT22;9888;48.606;9.630;2022-12-10T07:16:16;-0.90;99.90
19496;DHT22;9888;48.606;9.630;2022-12-10T07:18:44;-0.90;99.90
19496;DHT22;9888;48.606;9.630;2022-12-10T07:21:16;-0.90;99.90
19496;DHT22;9888;48.606;9.630;2022-12-10T07:23:44;-0.80;99.90
19496;DHT22;9888;48.606;9.630;2022-12-10T07:26:11;-0.80;99.90
19496;DHT22;9888;48.606;9.630;2022-12-10T07:28:38;-0.70;99.90
19496;DHT22;9888;48.606;9.630;2022-12-10T07:31:08;-0.80;99.90
19496;DHT22;9888;48.606;9.630;2022-12-10T07:33:36;-0.80;99.90
19496;DHT22;9888;48.606;9.630;2022-12-10T07:36:05;-0.70;99.90
19496;DHT22;9888;48.606;9.630;2022-12-10T07:38:33;-0.70;99.90
19496;DHT22;9888;48.606;9.630;2022-12-10T07:41:04;-0.70;99.90
19496;DHT22;9888;48.606;9.630;2022-12-10T07:43:34;-0.70;99.90
19496;DHT22;9888;48.606;9.630;2022-12-10T07:48:32;-0.70;99.90
19496;DHT22;9888;48.606;9.630;2022-12-10T07:51:00;-0.70;99.90
19496;DHT22;9888;48.606;9.630;2022-12-10T07:53:27;-0.60;99.90
19496;DHT22;9888;48.606;9.630;2022-12-10T07:55:54;-0.60;99.90
19496;DHT22;9888;48.606;9.630;2022-12-10T07:58:21;-0.60;99.90
19496;DHT22;9888;48.606;9.630;2022-12-10T08:00:48;-0.60;99.90
19496;DHT22;9888;48.606;9.630;2022-12-10T08:03:14;-0.60;99.90
19496;DHT22;9888;48.606;9.630;2022-12-10T08:05:41;-0.60;99.90
19496;DHT22;9888;48.606;9.630;2022-12-10T08:08:08;-0.50;99.90
19496;DHT22;9888;48.606;9.630;2022-12-10T08:10:35;-0.40;99.90
19496;DHT22;9888;48.606;9.630;2022-12-10T08:13:03;-0.30;99.90
19496;DHT22;9888;48.606;9.630;2022-12-10T08:15:30;-0.30;99.90
19496;DHT22;9888;48.606;9.630;2022-12-10T08:17:57;-0.30;99.90
19496;DHT22;9888;48.606;9.630;2022-12-10T08:20:25;-0.30;99.90
19496;DHT22;9888;48.606;9.630;2022-12-10T08:22:52;-0.30;99.90
19496;DHT22;9888;48.606;9.630;2022-12-10T08:25:20;-0.20;99.90
19496;DHT22;9888;48.606;9.630;2022-12-10T08:27:48;0.00;99.90
19496;DHT22;9888;48.606;9.630;2022-12-10T08:30:14;0.10;99.90
19496;DHT22;9888;48.606;9.630;2022-12-10T08:32:41;0.10;99.90
19496;DHT22;9888;48.606;9.630;2022-12-10T08:35:09;0.10;99.90
19496;DHT22;9888;48.606;9.630;2022-12-10T08:37:39;0.20;99.90
19496;DHT22;9888;48.606;9.630;2022-12-10T08:40:08;0.20;99.90
19496;DHT22;9888;48.606;9.630;2022-12-10T08:42:35;0.30;99.90
19496;DHT22;9888;48.606;9.630;2022-12-10T08:45:03;0.40;99.90
19496;DHT22;9888;48.606;9.630;2022-12-10T08:47:30;0.50;99.90
19496;DHT22;9888;48.606;9.630;2022-12-10T08:49:57;0.60;99.90
19496;DHT22;9888;48.606;9.630;2022-12-10T08:52:24;0.60;99.90
19496;DHT22;9888;48.606;9.630;2022-12-10T08:54:51;0.60;99.90
19496;DHT22;9888;48.606;9.630;2022-12-10T08:57:22;0.50;99.90
19496;DHT22;9888;48.606;9.630;2022-12-10T08:59:53;0.50;99.90
19496;DHT22;9888;48.606;9.630;2022-12-10T09:02:21;0.50;99.90
19496;DHT22;9888;48.606;9.630;2022-12-10T09:04:49;0.50;99.90
19496;DHT22;9888;48.606;9.630;2022-12-10T09:07:16;0.60;99.90
19496;DHT22;9888;48.606;9.630;2022-12-10T09:09:46;0.80;99.90
19496;DHT22;9888;48.606;9.630;2022-12-10T09:12:13;1.00;99.90
19496;DHT22;9888;48.606;9.630;2022-12-10T09:14:43;1.10;99.90
19496;DHT22;9888;48.606;9.630;2022-12-10T09:17:11;1.20;99.90
19496;DHT22;9888;48.606;9.630;2022-12-10T09:19:39;1.10;99.90
19496;DHT22;9888;48.606;9.630;2022-12-10T09:22:06;1.00;99.90
19496;DHT22;9888;48.606;9.630;2022-12-10T09:24:34;0.80;99.90
19496;DHT22;9888;48.606;9.630;2022-12-10T09:27:02;0.60;99.90
19496;DHT22;9888;48.606;9.630;2022-12-10T09:29:29;0.60;99.90
19496;DHT22;9888;48.606;9.630;2022-12-10T09:31:56;0.60;99.90
19496;DHT22;9888;48.606;9.630;2022-12-10T09:34:27;0.70;99.90
19496;DHT22;9888;48.606;9.630;2022-12-10T09:36:54;0.70;99.90
19496;DHT22;9888;48.606;9.630;2022-12-10T09:39:22;0.70;99.90
19496;DHT22;9888;48.606;9.630;2022-12-10T09:48:25;0.40;99.90
19496;DHT22;9888;48.606;9.630;2022-12-10T09:51:23;0.40;99.90
19496;DHT22;9888;48.606;9.630;2022-12-10T09:53:54;0.40;99.90
19496;DHT22;9888;48.606;9.630;2022-12-10T09:56:50;0.30;99.90
19496;DHT22;9888;48.606;9.630;2022-12-10T10:00:06;0.30;99.90
19496;DHT22;9888;48.606;9.630;2022-12-10T10:02:40;0.30;99.90
19496;DHT22;9888;48.606;9.630;2022-12-10T10:08:59;0.50;99.90
19496;DHT22;9888;48.606;9.630;2022-12-10T10:11:41;0.60;99.90
19496;DHT22;9888;48.606;9.630;2022-12-10T10:14:22;0.70;99.90
19496;DHT22;9888;48.606;9.630;2022-12-10T10:17:03;0.80;99.90
19496;DHT22;9888;48.606;9.630;2022-12-10T10:19:42;0.80;99.90
19496;DHT22;9888;48.606;9.630;2022-12-10T10:22:47;0.80;99.90
19496;DHT22;9888;48.606;9.630;2022-12-10T10:25:23;0.90;99.90
19496;DHT22;9888;48.606;9.630;2022-12-10T10:30:45;0.90;99.90
19496;DHT22;9888;48.606;9.630;2022-12-10T10:36:42;1.00;99.90
19496;DHT22;9888;48.606;9.630;2022-12-10T10:39:30;1.10;99.90
19496;DHT22;9888;48.606;9.630;2022-12-10T10:41:59;1.20;99.90
19496;DHT22;9888;48.606;9.630;2022-12-10T11:00:04;1.50;99.90
19496;DHT22;9888;48.606;9.630;2022-12-10T11:02:50;1.40;99.90
19496;DHT22;9888;48.606;9.630;2022-12-10T11:05:26;1.40;99.90
19496;DHT22;9888;48.606;9.630;2022-12-10T11:08:06;1.30;99.90
19496;DHT22;9888;48.606;9.630;2022-12-10T11:14:44;1.00;99.90
19496;DHT22;9888;48.606;9.630;2022-12-10T11:17:51;0.70;99.90
19496;DHT22;9888;48.606;9.630;2022-12-10T11:20:43;0.80;99.90
19496;DHT22;9888;48.606;9.630;2022-12-10T11:23:28;0.80;99.90
19496;DHT22;9888;48.606;9.630;2022-12-10T11:26:21;0.90;99.90
19496;DHT22;9888;48.606;9.630;2022-12-10T11:38:29;0.70;99.90
19496;DHT22;9888;48.606;9.630;2022-12-10T11:41:19;0.70;99.90
19496;DHT22;9888;48.606;9.630;2022-12-10T11:44:13;0.80;99.90
19496;DHT22;9888;48.606;9.630;2022-12-10T11:46:52;0.90;99.90
19496;DHT22;9888;48.606;9.630;2022-12-10T11:52:33;1.00;99.90
19496;DHT22;9888;48.606;9.630;2022-12-10T11:58:28;1.00;99.90
19496;DHT22;9888;48.606;9.630;2022-12-10T12:01:18;1.00;99.90
19496;DHT22;9888;48.606;9.630;2022-12-10T12:04:18;0.80;99.90
19496;DHT22;9888;48.606;9.630;2022-12-10T12:07:13;0.60;99.90
19496;DHT22;9888;48.606;9.630;2022-12-10T12:15:36;0.80;99.90
19496;DHT22;9888;48.606;9.630;2022-12-10T12:21:12;1.30;99.90
19496;DHT22;9888;48.606;9.630;2022-12-10T12:26:39;1.80;99.90
19496;DHT22;9888;48.606;9.630;2022-12-10T12:35:02;1.70;99.90
19496;DHT22;9888;48.606;9.630;2022-12-10T12:41:09;1.30;99.90
19496;DHT22;9888;48.606;9.630;2022-12-10T12:46:44;0.80;99.90
19496;DHT22;9888;48.606;9.630;2022-12-10T12:49:24;0.80;99.90
19496;DHT22;9888;48.606;9.630;2022-12-10T12:52:25;0.80;99.90
19496;DHT22;9888;48.606;9.630;2022-12-10T12:55:00;0.90;99.90
19496;DHT22;9888;48.606;9.630;2022-12-10T12:57:51;0.80;99.90
19496;DHT22;9888;48.606;9.630;2022-12-10T13:00:22;0.70;99.90
19496;DHT22;9888;48.606;9.630;2022-12-10T13:05:48;0.50;99.90
19496;DHT22;9888;48.606;9.630;2022-12-10T13:08:24;0.30;99.90
19496;DHT22;9888;48.606;9.630;2022-12-10T13:13:39;0.10;99.90
19496;DHT22;9888;48.606;9.630;2022-12-10T13:19:34;-0.10;99.90
19496;DHT22;9888;48.606;9.630;2022-12-10T13:22:12;-0.10;99.90
19496;DHT22;9888;48.606;9.630;2022-12-10T13:24:47;-0.20;99.90
19496;DHT22;9888;48.606;9.630;2022-12-10T13:27:35;-0.20;99.90
19496;DHT22;9888;48.606;9.630;2022-12-10T13:30:31;-0.20;99.90
19496;DHT22;9888;48.606;9.630;2022-12-10T13:33:17;-0.30;99.90
19496;DHT22;9888;48.606;9.630;2022-12-10T13:35:58;-0.30;99.90
19496;DHT22;9888;48.606;9.630;2022-12-10T13:38:28;-0.20;99.90
19496;DHT22;9888;48.606;9.630;2022-12-10T13:41:02;-0.20;99.90
19496;DHT22;9888;48.606;9.630;2022-12-10T13:44:00;-0.20;99.90
19496;DHT22;9888;48.606;9.630;2022-12-10T13:49:52;-0.30;99.90
19496;DHT22;9888;48.606;9.630;2022-12-10T13:52:31;-0.20;99.90
19496;DHT22;9888;48.606;9.630;2022-12-10T13:58:26;-0.40;99.90
19496;DHT22;9888;48.606;9.630;2022-12-10T14:01:00;-0.50;99.90
19496;DHT22;9888;48.606;9.630;2022-12-10T14:06:27;-0.50;99.90
19496;DHT22;9888;48.606;9.630;2022-12-10T14:09:31;-0.50;99.90
19496;DHT22;9888;48.606;9.630;2022-12-10T14:12:02;-0.60;99.90
19496;DHT22;9888;48.606;9.630;2022-12-10T14:14:36;-0.60;99.90
19496;DHT22;9888;48.606;9.630;2022-12-10T14:17:20;-0.60;99.90
19496;DHT22;9888;48.606;9.630;2022-12-10T14:19:50;-0.70;99.90
19496;DHT22;9888;48.606;9.630;2022-12-10T14:25:04;-0.60;99.90
19496;DHT22;9888;48.606;9.630;2022-12-10T14:27:33;-0.60;99.90
19496;DHT22;9888;48.606;9.630;2022-12-10T14:30:06;-0.60;99.90
19496;DHT22;9888;48.606;9.630;2022-12-10T14:32:43;-0.60;99.90
19496;DHT22;9888;48.606;9.630;2022-12-10T14:35:21;-0.60;99.90
19496;DHT22;9888;48.606;9.630;2022-12-10T14:37:50;-0.70;99.90
19496;DHT22;9888;48.606;9.630;2022-12-10T14:40:27;-0.70;99.90
19496;DHT22;9888;48.606;9.630;2022-12-10T14:43:14;-0.80;99.90
19496;DHT22;9888;48.606;9.630;2022-12-10T14:45:51;-0.80;99.90
19496;DHT22;9888;48.606;9.630;2022-12-10T14:48:19;-0.80;99.90
19496;DHT22;9888;48.606;9.630;2022-12-10T14:50:47;-0.80;99.90
19496;DHT22;9888;48.606;9.630;2022-12-10T14:53:22;-0.90;99.90
19496;DHT22;9888;48.606;9.630;2022-12-10T14:55:55;-0.90;99.90
19496;DHT22;9888;48.606;9.630;2022-12-10T14:58:39;-0.90;99.90
19496;DHT22;9888;48.606;9.630;2022-12-10T15:01:32;-0.90;99.90
19496;DHT22;9888;48.606;9.630;2022-12-10T15:04:02;-0.90;99.90
19496;DHT22;9888;48.606;9.630;2022-12-10T15:06:35;-0.80;99.90
19496;DHT22;9888;48.606;9.630;2022-12-10T15:09:05;-0.80;99.90
19496;DHT22;9888;48.606;9.630;2022-12-10T15:11:36;-0.90;99.90
19496;DHT22;9888;48.606;9.630;2022-12-10T15:14:04;-0.90;99.90
19496;DHT22;9888;48.606;9.630;2022-12-10T15:16:42;-0.90;99.90
19496;DHT22;9888;48.606;9.630;2022-12-10T15:19:32;-0.90;99.90
19496;DHT22;9888;48.606;9.630;2022-12-10T15:22:15;-0.90;99.90
19496;DHT22;9888;48.606;9.630;2022-12-10T15:24:44;-0.90;99.90
19496;DHT22;9888;48.606;9.630;2022-12-10T15:27:25;-0.90;99.90
19496;DHT22;9888;48.606;9.630;2022-12-10T15:29:52;-0.90;99.90
19496;DHT22;9888;48.606;9.630;2022-12-10T15:32:26;-0.90;99.90
19496;DHT22;9888;48.606;9.630;2022-12-10T15:34:58;-0.90;99.90
19496;DHT22;9888;48.606;9.630;2022-12-10T15:37:38;-0.90;99.90
19496;DHT22;9888;48.606;9.630;2022-12-10T15:40:30;-1.00;99.90
19496;DHT22;9888;48.606;9.630;2022-12-10T15:43:29;-1.00;99.90
19496;DHT22;9888;48.606;9.630;2022-12-10T15:45:58;-1.10;99.90
19496;DHT22;9888;48.606;9.630;2022-12-10T15:48:30;-1.10;99.90
19496;DHT22;9888;48.606;9.630;2022-12-10T15:50:58;-1.10;99.90
19496;DHT22;9888;48.606;9.630;2022-12-10T15:53:28;-1.10;99.90
19496;DHT22;9888;48.606;9.630;2022-12-10T15:55:56;-1.10;99.90
19496;DHT22;9888;48.606;9.630;2022-12-10T15:58:23;-1.10;99.90
19496;DHT22;9888;48.606;9.630;2022-12-10T16:00:51;-1.00;99.90
19496;DHT22;9888;48.606;9.630;2022-12-10T16:03:20;-1.00;99.90
19496;DHT22;9888;48.606;9.630;2022-12-10T16:05:47;-1.00;99.90
19496;DHT22;9888;48.606;9.630;2022-12-10T16:08:27;-1.00;99.90
19496;DHT22;9888;48.606;9.630;2022-12-10T16:14:17;-1.00;99.90
19496;DHT22;9888;48.606;9.630;2022-12-10T16:16:44;-1.00;99.90
19496;DHT22;9888;48.606;9.630;2022-12-10T16:19:11;-1.00;99.90
19496;DHT22;9888;48.606;9.630;2022-12-10T16:21:40;-1.10;99.90
19496;DHT22;9888;48.606;9.630;2022-12-10T16:24:12;-1.10;99.90
19496;DHT22;9888;48.606;9.630;2022-12-10T16:26:39;-1.10;99.90
19496;DHT22;9888;48.606;9.630;2022-12-10T16:29:07;-1.10;99.90
19496;DHT22;9888;48.606;9.630;2022-12-10T16:31:35;-1.10;99.90
19496;DHT22;9888;48.606;9.630;2022-12-10T16:34:06;-1.10;99.90
19496;DHT22;9888;48.606;9.630;2022-12-10T16:36:34;-1.10;99.90
19496;DHT22;9888;48.606;9.630;2022-12-10T16:39:03;-1.10;99.90
19496;DHT22;9888;48.606;9.630;2022-12-10T16:41:33;-1.10;99.90
19496;DHT22;9888;48.606;9.630;2022-12-10T16:44:02;-1.10;99.90
19496;DHT22;9888;48.606;9.630;2022-12-10T16:46:29;-1.10;99.90
19496;DHT22;9888;48.606;9.630;2022-12-10T16:52:54;-1.10;99.90
19496;DHT22;9888;48.606;9.630;2022-12-10T16:55:25;-1.20;99.90
19496;DHT22;9888;48.606;9.630;2022-12-10T16:57:54;-1.30;99.90
19496;DHT22;9888;48.606;9.630;2022-12-10T17:00:23;-1.40;99.90
19496;DHT22;9888;48.606;9.630;2022-12-10T17:02:51;-1.40;99.90
19496;DHT22;9888;48.606;9.630;2022-12-10T17:05:38;-1.50;99.90
19496;DHT22;9888;48.606;9.630;2022-12-10T17:08:07;-1.50;99.90
19496;DHT22;9888;48.606;9.630;2022-12-10T17:10:35;-1.50;99.90
19496;DHT22;9888;48.606;9.630;2022-12-10T17:13:40;-1.50;99.90
19496;DHT22;9888;48.606;9.630;2022-12-10T17:16:20;-1.50;99.90
19496;DHT22;9888;48.606;9.630;2022-12-10T17:18:49;-1.50;99.90
19496;DHT22;9888;48.606;9.630;2022-12-10T17:21:17;-1.50;99.90
19496;DHT22;9888;48.606;9.630;2022-12-10T17:23:44;-1.50;99.90
19496;DHT22;9888;48.606;9.630;2022-12-10T17:26:27;-1.50;99.90
19496;DHT22;9888;48.606;9.630;2022-12-10T17:29:13;-1.50;99.90
19496;DHT22;9888;48.606;9.630;2022-12-10T17:31:42;-1.40;99.90
19496;DHT22;9888;48.606;9.630;2022-12-10T17:34:11;-1.40;99.90
19496;DHT22;9888;48.606;9.630;2022-12-10T17:36:41;-1.40;99.90
19496;DHT22;9888;48.606;9.630;2022-12-10T17:39:15;-1.40;99.90
19496;DHT22;9888;48.606;9.630;2022-12-10T17:41:45;-1.50;99.90
19496;DHT22;9888;48.606;9.630;2022-12-10T17:44:12;-1.50;99.90
19496;DHT22;9888;48.606;9.630;2022-12-10T17:46:40;-1.50;99.90
19496;DHT22;9888;48.606;9.630;2022-12-10T17:49:09;-1.50;99.90
19496;DHT22;9888;48.606;9.630;2022-12-10T17:51:35;-1.60;99.90
19496;DHT22;9888;48.606;9.630;2022-12-10T17:54:03;-1.70;99.90
19496;DHT22;9888;48.606;9.630;2022-12-10T17:56:30;-1.70;99.90
19496;DHT22;9888;48.606;9.630;2022-12-10T17:58:58;-1.80;99.90
19496;DHT22;9888;48.606;9.630;2022-12-10T18:01:26;-1.80;99.90
19496;DHT22;9888;48.606;9.630;2022-12-10T18:03:54;-1.80;99.90
19496;DHT22;9888;48.606;9.630;2022-12-10T18:06:28;-1.90;99.90
19496;DHT22;9888;48.606;9.630;2022-12-10T18:08:57;-1.90;99.90
19496;DHT22;9888;48.606;9.630;2022-12-10T18:11:35;-1.90;99.90
19496;DHT22;9888;48.606;9.630;2022-12-10T18:14:02;-1.90;99.90
19496;DHT22;9888;48.606;9.630;2022-12-10T18:16:32;-1.90;99.90
19496;DHT22;9888;48.606;9.630;2022-12-10T18:19:07;-1.90;99.90
19496;DHT22;9888;48.606;9.630;2022-12-10T18:21:42;-1.90;99.90
19496;DHT22;9888;48.606;9.630;2022-12-10T18:24:09;-2.00;99.90
19496;DHT22;9888;48.606;9.630;2022-12-10T22:20:31;-2.40;99.90
19496;DHT22;9888;48.606;9.630;2022-12-10T22:23:01;-2.40;99.90
19496;DHT22;9888;48.606;9.630;2022-12-10T22:25:29;-2.40;99.90
19496;DHT22;9888;48.606;9.630;2022-12-10T22:27:56;-2.40;99.90
19496;DHT22;9888;48.606;9.630;2022-12-10T22:30:23;-2.40;99.90
19496;DHT22;9888;48.606;9.630;2022-12-10T22:32:53;-2.40;99.90
19496;DHT22;9888;48.606;9.630;2022-12-10T22:35:20;-2.50;99.90
19496;DHT22;9888;48.606;9.630;2022-12-10T22:37:50;-2.50;99.90